createdAt,value
2018-01-23T00:01:18.342Z,13.30
2018-01-23T00:03:46.738Z,12.97
2018-01-23T00:06:15.140Z,13.40
2018-01-23T00:08:43.594Z,13.63
2018-01-23T00:11:12.015Z,13.63
2018-01-23T00:13:40.451Z,13.23
2018-01-23T00:16:08.898Z,13.50
2018-01-23T00:18:37.293Z,14.43
2018-01-23T00:21:05.724Z,12.47
2018-01-23T00:23:34.207Z,12.70
2018-01-23T00:26:02.605Z,12.10
2018-01-23T00:28:31.010Z,12.40
2018-01-23T00:30:59.445Z,11.30
2018-01-23T00:33:27.837Z,12.57
2018-01-23T00:35:56.260Z,11.17
2018-01-23T00:38:24.731Z,12.77
2018-01-23T00:40:53.163Z,11.27
2018-01-23T00:43:21.572Z,12.63
2018-01-23T00:45:50.023Z,12.37
2018-01-23T00:48:18.455Z,12.10
2018-01-23T00:50:46.913Z,10.93
2018-01-23T00:53:15.373Z,11.13
2018-01-23T00:55:43.778Z,10.97
2018-01-23T00:58:12.190Z,10.47
2018-01-23T01:00:40.652Z,10.30
2018-01-23T01:03:09.045Z,11.43
2018-01-23T01:05:37.433Z,9.60
2018-01-23T01:08:05.866Z,10.17
2018-01-23T01:10:35.066Z,10.57
2018-01-23T01:13:03.453Z,10.43
2018-01-23T01:15:31.924Z,10.47
2018-01-23T01:18:00.361Z,10.33
2018-01-23T01:20:28.800Z,10.27
2018-01-23T01:22:57.237Z,10.10
2018-01-23T01:25:25.631Z,10.97
2018-01-23T01:27:54.054Z,10.67
2018-01-23T01:30:22.522Z,10.30
2018-01-23T01:32:50.946Z,11.60
2018-01-23T01:35:19.365Z,11.87
2018-01-23T01:37:47.836Z,11.80
2018-01-23T01:40:16.270Z,12.67
2018-01-23T01:42:44.702Z,12.87
2018-01-23T01:45:13.158Z,12.30
2018-01-23T01:47:41.586Z,13.60
2018-01-23T01:50:09.990Z,12.87
2018-01-23T01:52:38.446Z,12.63
2018-01-23T01:55:06.873Z,11.80
2018-01-23T01:57:35.307Z,11.73
2018-01-23T02:00:03.770Z,12.07
2018-01-23T02:02:32.202Z,12.10
2018-01-23T02:05:00.632Z,11.60
2018-01-23T02:07:29.074Z,11.37
2018-01-23T02:09:57.502Z,11.10
2018-01-23T02:12:25.943Z,12.73
2018-01-23T02:14:54.405Z,13.10
2018-01-23T02:17:22.797Z,11.53
2018-01-23T02:19:51.217Z,12.23
2018-01-23T02:22:19.678Z,11.40
2018-01-23T02:24:48.087Z,11.60
2018-01-23T02:27:16.517Z,12.70
2018-01-23T02:29:44.949Z,11.77
2018-01-23T02:32:13.357Z,12.60
2018-01-23T02:34:41.765Z,11.93
2018-01-23T02:37:10.215Z,12.10
2018-01-23T02:39:38.648Z,13.30
2018-01-23T02:42:07.091Z,12.27
2018-01-23T02:44:35.549Z,11.77
2018-01-23T02:47:03.954Z,11.20
2018-01-23T02:49:32.354Z,9.97
2018-01-23T02:52:00.823Z,9.77
2018-01-23T02:54:29.245Z,9.53
2018-01-23T02:56:57.669Z,8.93
2018-01-23T02:59:26.132Z,8.37
2018-01-23T03:01:54.530Z,8.33
2018-01-23T03:04:22.943Z,9.43
2018-01-23T03:06:51.386Z,8.87
2018-01-23T03:09:19.810Z,8.87
2018-01-23T03:11:48.209Z,9.20
2018-01-23T03:14:16.658Z,10.00
2018-01-23T03:16:45.059Z,9.97
2018-01-23T03:19:13.497Z,10.90
2018-01-23T03:21:41.950Z,10.50
2018-01-23T03:24:10.363Z,10.00
2018-01-23T03:26:38.798Z,10.60
2018-01-23T03:29:07.229Z,11.17
2018-01-23T03:31:35.653Z,11.87
2018-01-23T03:34:04.090Z,11.77
2018-01-23T03:36:32.545Z,11.40
2018-01-23T03:39:00.961Z,10.00
2018-01-23T03:41:29.385Z,11.47
2018-01-23T03:43:57.834Z,11.00
2018-01-23T03:46:26.289Z,12.73
2018-01-23T03:48:54.716Z,12.23
2018-01-23T03:51:23.162Z,11.43
2018-01-23T03:53:51.589Z,11.37
2018-01-23T03:56:19.990Z,11.87
2018-01-23T03:58:48.447Z,11.37
2018-01-23T04:01:16.869Z,11.73
2018-01-23T04:03:45.291Z,13.03
2018-01-23T04:06:13.758Z,12.23
2018-01-23T04:08:42.163Z,11.57
2018-01-23T04:11:10.568Z,11.63
2018-01-23T04:13:39.017Z,11.43
2018-01-23T04:16:07.452Z,11.30
2018-01-23T04:18:35.858Z,11.30
2018-01-23T04:21:04.295Z,11.87
2018-01-23T04:23:32.725Z,10.30
2018-01-23T04:26:01.126Z,12.10
2018-01-23T04:28:29.578Z,11.30
2018-01-23T04:30:57.996Z,11.20
2018-01-23T04:33:26.426Z,11.47
2018-01-23T04:35:54.896Z,10.40
2018-01-23T04:38:23.309Z,11.63
2018-01-23T04:40:51.729Z,9.83
2018-01-23T04:43:20.174Z,10.03
2018-01-23T04:45:48.597Z,11.77
2018-01-23T04:48:17.024Z,10.67
2018-01-23T04:50:45.477Z,9.87
2018-01-23T04:53:13.894Z,10.87
2018-01-23T04:55:42.293Z,9.70
2018-01-23T04:58:10.733Z,11.33
2018-01-23T05:00:39.168Z,11.40
2018-01-23T05:03:07.594Z,11.77
2018-01-23T05:05:36.064Z,10.13
2018-01-23T05:08:04.489Z,11.17
2018-01-23T05:10:32.917Z,11.17
2018-01-23T05:13:01.370Z,11.50
2018-01-23T05:15:31.361Z,11.03
2018-01-23T05:17:59.769Z,11.93
2018-01-23T05:20:28.225Z,10.47
2018-01-23T05:22:56.634Z,10.77
2018-01-23T05:25:25.062Z,10.30
2018-01-23T05:27:53.508Z,11.17
2018-01-23T05:30:21.941Z,10.80
2018-01-23T05:32:50.376Z,11.87
2018-01-23T05:35:18.840Z,10.87
2018-01-23T05:37:47.261Z,11.73
2018-01-23T05:40:15.675Z,12.20
2018-01-23T05:42:44.141Z,11.17
2018-01-23T05:45:12.570Z,12.67
2018-01-23T05:47:41.055Z,11.53
2018-01-23T05:50:09.515Z,13.47
2018-01-23T05:52:37.929Z,12.63
2018-01-23T05:55:06.360Z,11.50
2018-01-23T05:57:34.838Z,13.03
2018-01-23T06:00:03.278Z,13.30
2018-01-23T06:02:31.693Z,14.17
2018-01-23T06:05:00.137Z,13.30
2018-01-23T06:07:28.573Z,13.80
2018-01-23T06:09:56.973Z,13.63
2018-01-23T06:12:25.425Z,14.83
2018-01-23T06:14:54.186Z,14.27
2018-01-23T06:17:22.598Z,14.33
2018-01-23T06:19:51.073Z,15.33
2018-01-23T06:22:19.498Z,14.37
2018-01-23T06:24:47.903Z,14.50
2018-01-23T06:27:16.346Z,13.87
2018-01-23T06:29:44.764Z,15.63
2018-01-23T06:32:13.172Z,16.20
2018-01-23T06:34:41.716Z,14.90
2018-01-23T06:37:10.117Z,15.50
2018-01-23T06:39:38.534Z,15.40
2018-01-23T06:42:06.985Z,15.23
2018-01-23T06:44:35.421Z,14.90
2018-01-23T06:47:03.858Z,15.43
2018-01-23T06:49:32.300Z,16.10
2018-01-23T06:52:00.733Z,15.07
2018-01-23T06:54:29.153Z,15.63
2018-01-23T06:56:57.625Z,15.53
2018-01-23T06:59:26.063Z,16.43
2018-01-23T07:01:54.466Z,15.77
2018-01-23T07:04:22.918Z,16.53
2018-01-23T07:06:51.365Z,14.87
2018-01-23T07:09:19.786Z,15.53
2018-01-23T07:11:48.225Z,14.83
2018-01-23T07:14:16.630Z,14.00
2018-01-23T07:16:45.037Z,14.87
2018-01-23T07:19:13.481Z,14.67
2018-01-23T07:21:41.908Z,14.90
2018-01-23T07:24:10.341Z,15.23
2018-01-23T07:26:38.950Z,16.97
2018-01-23T07:29:07.369Z,15.67
2018-01-23T07:31:35.794Z,17.87
2018-01-23T07:34:04.267Z,15.23
2018-01-23T07:36:32.665Z,16.77
2018-01-23T07:39:01.093Z,15.80
2018-01-23T07:41:29.545Z,17.60
2018-01-23T07:43:57.958Z,17.83
2018-01-23T07:46:26.417Z,15.23
2018-01-23T07:48:54.918Z,16.70
2018-01-23T07:51:23.330Z,16.93
2018-01-23T07:53:51.756Z,15.90
2018-01-23T07:56:20.223Z,16.40
2018-01-23T07:58:48.640Z,16.83
2018-01-23T08:01:17.058Z,18.43
2018-01-23T08:03:45.507Z,19.00
2018-01-23T08:06:13.905Z,18.83
2018-01-23T08:08:42.324Z,16.53
2018-01-23T08:11:10.774Z,17.93
2018-01-23T08:13:39.169Z,18.00
2018-01-23T08:16:07.591Z,17.17
2018-01-23T08:18:36.058Z,17.33
2018-01-23T08:21:04.465Z,17.50
2018-01-23T08:23:32.867Z,16.93
2018-01-23T08:26:01.963Z,16.77
2018-01-23T08:28:30.372Z,17.57
2018-01-23T08:30:58.816Z,18.40
2018-01-23T08:33:27.619Z,19.00
2018-01-23T08:35:56.049Z,17.40
2018-01-23T08:38:24.458Z,19.40
2018-01-23T08:40:52.944Z,17.87
2018-01-23T08:43:21.382Z,17.43
2018-01-23T08:45:49.810Z,18.00
2018-01-23T08:48:18.261Z,18.10
2018-01-23T08:50:46.670Z,20.43
2018-01-23T08:53:15.120Z,18.53
2018-01-23T08:55:43.597Z,18.53
2018-01-23T08:58:12.038Z,18.87
2018-01-23T09:00:40.466Z,18.17
2018-01-23T09:03:08.929Z,17.97
2018-01-23T09:05:37.339Z,17.97
2018-01-23T09:08:05.773Z,17.67
2018-01-23T09:10:34.224Z,15.33
2018-01-23T09:13:02.673Z,17.97
2018-01-23T09:15:31.094Z,16.10
2018-01-23T09:17:59.550Z,16.97
2018-01-23T09:20:27.945Z,18.13
2018-01-23T09:22:56.384Z,18.53
2018-01-23T09:25:24.837Z,18.83
2018-01-23T09:27:53.303Z,18.47
2018-01-23T09:30:21.742Z,18.97
2018-01-23T09:32:50.208Z,20.30
2018-01-23T09:35:18.645Z,18.83
2018-01-23T09:37:47.080Z,19.80
2018-01-23T09:40:15.525Z,19.57
2018-01-23T09:42:43.945Z,19.47
2018-01-23T09:45:12.358Z,21.37
2018-01-23T09:47:40.831Z,19.57
2018-01-23T09:50:09.232Z,20.97
2018-01-23T09:52:37.632Z,20.67
2018-01-23T09:55:06.099Z,19.73
2018-01-23T09:57:34.530Z,19.63
2018-01-23T10:00:02.929Z,20.10
2018-01-23T10:02:31.413Z,21.47
2018-01-23T10:04:59.834Z,24.00
2018-01-23T10:07:28.261Z,23.57
2018-01-23T10:09:56.729Z,22.50
2018-01-23T10:12:25.137Z,23.77
2018-01-23T10:14:53.561Z,23.33
2018-01-23T10:17:22.010Z,25.17
2018-01-23T10:19:50.458Z,22.30
2018-01-23T10:22:18.912Z,25.60
2018-01-23T10:24:47.391Z,23.57
2018-01-23T10:27:15.806Z,24.00
2018-01-23T10:29:44.246Z,22.37
2018-01-23T10:32:12.743Z,22.90
2018-01-23T10:34:41.190Z,22.40
2018-01-23T10:37:09.595Z,22.50
2018-01-23T10:39:38.046Z,23.10
2018-01-23T10:42:06.468Z,22.70
2018-01-23T10:44:34.864Z,22.03
2018-01-23T10:47:03.313Z,20.60
2018-01-23T10:49:31.737Z,21.13
2018-01-23T10:52:00.181Z,20.10
2018-01-23T10:54:28.655Z,18.70
2018-01-23T10:56:57.066Z,18.73
2018-01-23T10:59:25.486Z,19.07
2018-01-23T11:01:53.967Z,17.67
2018-01-23T11:04:22.421Z,19.23
2018-01-23T11:06:50.847Z,17.77
2018-01-23T11:09:19.310Z,18.20
2018-01-23T11:11:47.728Z,17.60
2018-01-23T11:14:16.134Z,17.27
2018-01-23T11:16:44.590Z,16.93
2018-01-23T11:19:13.013Z,16.47
2018-01-23T11:21:41.419Z,16.60
2018-01-23T11:24:09.851Z,18.13
2018-01-23T11:26:38.268Z,18.17
2018-01-23T11:29:06.685Z,19.10
2018-01-23T11:31:35.149Z,18.53
2018-01-23T11:34:03.587Z,18.60
2018-01-23T11:36:31.995Z,18.37
2018-01-23T11:39:00.485Z,17.10
2018-01-23T11:41:28.922Z,15.67
2018-01-23T11:43:57.339Z,15.80
2018-01-23T11:46:25.800Z,16.33
2018-01-23T11:48:54.237Z,14.73
2018-01-23T11:51:22.694Z,14.73
2018-01-23T11:53:51.174Z,17.33
2018-01-23T11:56:19.668Z,17.03
2018-01-23T11:58:48.097Z,19.33
2018-01-23T12:01:16.554Z,21.37
2018-01-23T12:03:44.973Z,16.50
2018-01-23T12:06:13.402Z,14.90
2018-01-23T12:08:41.887Z,12.80
2018-01-23T12:11:10.292Z,11.77
2018-01-23T12:13:38.688Z,11.57
2018-01-23T12:16:07.140Z,11.70
2018-01-23T12:18:35.570Z,11.60
2018-01-23T12:21:04.025Z,10.47
2018-01-23T12:23:32.505Z,10.20
2018-01-23T12:26:00.898Z,10.33
2018-01-23T12:28:29.290Z,9.50
2018-01-23T12:30:57.746Z,8.70
2018-01-23T12:33:26.161Z,8.93
2018-01-23T12:35:54.613Z,7.50
2018-01-23T12:38:23.267Z,7.90
2018-01-23T12:40:51.678Z,6.60
2018-01-23T12:43:20.073Z,6.53
2018-01-23T12:45:48.557Z,6.10
2018-01-23T12:48:16.947Z,5.60
2018-01-23T12:50:45.355Z,6.93
2018-01-23T12:53:13.827Z,5.50
2018-01-23T12:55:42.238Z,5.40
2018-01-23T12:58:10.674Z,6.30
2018-01-23T13:00:39.133Z,5.17
2018-01-23T13:03:07.546Z,5.47
2018-01-23T13:05:35.968Z,6.80
2018-01-23T13:08:04.589Z,6.43
2018-01-23T13:10:33.009Z,6.00
2018-01-23T13:13:01.422Z,5.77
2018-01-23T13:15:29.864Z,4.63
2018-01-23T13:17:58.270Z,5.37
2018-01-23T13:20:26.681Z,5.50
2018-01-23T13:22:55.146Z,5.03
2018-01-23T13:25:23.573Z,5.00
2018-01-23T13:27:51.986Z,5.17
2018-01-23T13:30:20.440Z,6.23
2018-01-23T13:32:48.866Z,6.10
2018-01-23T13:35:17.292Z,6.23
2018-01-23T13:37:45.766Z,6.77
2018-01-23T13:40:14.192Z,7.33
2018-01-23T13:42:42.619Z,7.83
2018-01-23T13:45:11.087Z,7.70
2018-01-23T13:47:39.502Z,7.57
2018-01-23T13:50:07.914Z,7.50
2018-01-23T13:52:36.395Z,7.50
2018-01-23T13:55:04.814Z,7.20
2018-01-23T13:57:33.222Z,6.80
2018-01-23T14:00:01.657Z,7.00
2018-01-23T14:02:30.071Z,8.17
2018-01-23T14:04:58.480Z,8.90
2018-01-23T14:07:26.926Z,8.00
2018-01-23T14:09:55.342Z,6.00
2018-01-23T14:12:23.783Z,7.00
2018-01-23T14:14:52.258Z,7.10
2018-01-23T14:17:21.729Z,7.33
2018-01-23T14:19:50.133Z,7.00
2018-01-23T14:22:18.611Z,8.13
2018-01-23T14:24:47.044Z,7.20
2018-01-23T14:27:15.484Z,7.77
2018-01-23T14:29:43.950Z,7.67
2018-01-23T14:32:12.391Z,6.93
2018-01-23T14:34:40.833Z,6.57
2018-01-23T14:37:09.330Z,7.10
2018-01-23T14:39:37.747Z,6.20
2018-01-23T14:42:06.184Z,6.07
2018-01-23T14:44:34.654Z,7.03
2018-01-23T14:47:03.063Z,6.80
2018-01-23T14:49:31.445Z,5.37
2018-01-23T14:51:59.897Z,6.40
2018-01-23T14:54:28.290Z,5.63
2018-01-23T14:56:56.694Z,6.67
2018-01-23T14:59:25.160Z,6.73
2018-01-23T15:01:53.589Z,8.10
2018-01-23T15:04:21.997Z,8.30
2018-01-23T15:06:50.447Z,7.80
2018-01-23T15:09:18.881Z,7.57
2018-01-23T15:11:47.344Z,7.07
2018-01-23T15:14:15.802Z,6.43
2018-01-23T15:16:44.212Z,6.77
2018-01-23T15:19:12.617Z,7.50
2018-01-23T15:21:41.061Z,7.80
2018-01-23T15:24:09.464Z,7.90
2018-01-23T15:26:37.878Z,7.93
2018-01-23T15:29:06.328Z,7.27
2018-01-23T15:31:34.754Z,6.90
2018-01-23T15:34:03.212Z,7.00
2018-01-23T15:36:31.690Z,7.30
2018-01-23T15:39:00.114Z,7.20
2018-01-23T15:41:28.526Z,7.73
2018-01-23T15:43:56.973Z,7.07
2018-01-23T15:46:25.423Z,7.53
2018-01-23T15:48:53.822Z,8.07
2018-01-23T15:51:22.270Z,6.80
2018-01-23T15:53:50.753Z,8.17
2018-01-23T15:56:19.174Z,7.20
2018-01-23T15:58:47.629Z,8.27
2018-01-23T16:01:16.023Z,6.70
2018-01-23T16:03:44.685Z,7.63
2018-01-23T16:06:13.178Z,6.87
2018-01-23T16:08:41.631Z,8.13
2018-01-23T16:11:10.043Z,6.30
2018-01-23T16:13:38.709Z,6.93
2018-01-23T16:16:07.122Z,6.83
2018-01-23T16:18:35.532Z,6.77
2018-01-23T16:21:03.981Z,7.23
2018-01-23T16:23:32.413Z,6.90
2018-01-23T16:26:00.818Z,6.77
2018-01-23T16:28:29.248Z,6.40
2018-01-23T16:30:57.678Z,5.60
2018-01-23T16:33:26.088Z,5.90
2018-01-23T16:35:54.604Z,6.30
2018-01-23T16:38:23.001Z,6.23
2018-01-23T16:40:51.425Z,6.27
2018-01-23T16:43:19.864Z,7.50
2018-01-23T16:45:48.675Z,6.20
2018-01-23T16:48:17.102Z,6.00
2018-01-23T16:50:45.550Z,5.90
2018-01-23T16:53:13.981Z,5.90
2018-01-23T16:55:42.395Z,5.70
2018-01-23T16:58:10.883Z,5.43
2018-01-23T17:00:39.285Z,5.47
2018-01-23T17:03:07.694Z,5.63
2018-01-23T17:05:36.140Z,5.37
2018-01-23T17:08:04.554Z,5.97
2018-01-23T17:10:32.939Z,5.03
2018-01-23T17:13:01.394Z,5.60
2018-01-23T17:15:29.835Z,6.27
2018-01-23T17:17:58.237Z,5.50
2018-01-23T17:20:26.684Z,5.23
2018-01-23T17:22:55.086Z,5.77
2018-01-23T17:25:23.527Z,5.67
2018-01-23T17:27:52.922Z,5.67
2018-01-23T17:30:21.366Z,5.13
2018-01-23T17:32:49.775Z,4.53
2018-01-23T17:35:18.222Z,5.10
2018-01-23T17:37:46.618Z,6.33
2018-01-23T17:40:15.032Z,5.37
2018-01-23T17:42:43.481Z,4.50
2018-01-23T17:45:11.895Z,5.07
2018-01-23T17:47:40.317Z,5.60
2018-01-23T17:50:08.833Z,5.30
2018-01-23T17:52:37.229Z,5.37
2018-01-23T17:55:05.623Z,4.43
2018-01-23T17:57:34.079Z,4.47
2018-01-23T18:00:02.506Z,5.17
2018-01-23T18:02:30.923Z,5.30
2018-01-23T18:04:59.398Z,5.73
2018-01-23T18:07:27.796Z,5.63
2018-01-23T18:09:56.186Z,4.63
2018-01-23T18:12:24.876Z,4.63
2018-01-23T18:14:53.293Z,4.30
2018-01-23T18:17:21.714Z,4.47
2018-01-23T18:19:50.143Z,5.33
2018-01-23T18:22:18.535Z,4.50
2018-01-23T18:24:46.966Z,4.70
2018-01-23T18:27:15.413Z,4.83
2018-01-23T18:29:43.821Z,4.47
2018-01-23T18:32:12.229Z,4.50
2018-01-23T18:34:40.861Z,4.70
2018-01-23T18:37:09.278Z,5.47
2018-01-23T18:39:37.702Z,4.67
2018-01-23T18:42:06.140Z,5.53
2018-01-23T18:44:34.553Z,5.60
2018-01-23T18:47:02.954Z,5.20
2018-01-23T18:49:31.417Z,5.73
2018-01-23T18:51:59.850Z,5.10
2018-01-23T18:54:28.261Z,5.77
2018-01-23T18:56:56.835Z,5.40
2018-01-23T18:59:25.256Z,5.40
2018-01-23T19:01:53.645Z,5.50
2018-01-23T19:04:22.101Z,5.17
2018-01-23T19:06:50.501Z,11.00
2018-01-23T19:09:18.886Z,5.33
2018-01-23T19:11:47.313Z,5.57
2018-01-23T19:14:15.712Z,5.30
2018-01-23T19:16:44.122Z,5.33
2018-01-23T19:19:12.562Z,5.10
2018-01-23T19:21:40.988Z,4.97
2018-01-23T19:24:09.410Z,4.93
2018-01-23T19:26:37.853Z,5.50
2018-01-23T19:29:06.287Z,6.07
2018-01-23T19:31:34.682Z,5.63
2018-01-23T19:34:03.158Z,5.60
2018-01-23T19:36:31.553Z,5.03
2018-01-23T19:38:59.942Z,6.10
2018-01-23T19:41:28.407Z,5.97
2018-01-23T19:43:56.806Z,5.20
2018-01-23T19:46:25.219Z,5.23
2018-01-23T19:48:53.821Z,5.23
2018-01-23T19:51:22.225Z,5.70
2018-01-23T19:53:50.608Z,6.00
2018-01-23T19:56:19.038Z,6.20
2018-01-23T19:58:47.457Z,5.57
2018-01-23T20:01:15.858Z,6.07
2018-01-23T20:03:44.310Z,5.83
2018-01-23T20:06:12.701Z,6.23
2018-01-23T20:08:41.101Z,5.47
2018-01-23T20:11:09.546Z,5.00
2018-01-23T20:13:37.938Z,4.53
2018-01-23T20:16:06.346Z,6.33
2018-01-23T20:18:34.801Z,6.53
2018-01-23T20:21:03.230Z,6.27
2018-01-23T20:23:31.655Z,6.13
2018-01-23T20:26:00.466Z,7.03
2018-01-23T20:28:28.901Z,5.90
2018-01-23T20:30:57.318Z,7.27
2018-01-23T20:33:25.778Z,6.43
2018-01-23T20:35:54.177Z,6.13
2018-01-23T20:38:22.582Z,6.40
2018-01-23T20:40:51.045Z,6.83
2018-01-23T20:43:19.464Z,6.80
2018-01-23T20:45:47.875Z,6.40
2018-01-23T20:48:16.333Z,6.77
2018-01-23T20:50:44.750Z,7.47
2018-01-23T20:53:13.159Z,7.00
2018-01-23T20:55:41.618Z,7.47
2018-01-23T20:58:10.035Z,7.47
2018-01-23T21:00:38.452Z,7.97
2018-01-23T21:03:06.909Z,8.80
2018-01-23T21:05:35.322Z,7.50
2018-01-23T21:08:03.788Z,8.63
2018-01-23T21:10:32.226Z,7.47
2018-01-23T21:13:00.638Z,8.27
2018-01-23T21:15:29.074Z,7.73
2018-01-23T21:17:57.505Z,7.67
2018-01-23T21:20:26.924Z,8.00
2018-01-23T21:22:55.366Z,8.27
2018-01-23T21:25:23.816Z,8.30
2018-01-23T21:27:52.254Z,8.07
2018-01-23T21:30:20.686Z,7.13
2018-01-23T21:32:49.137Z,7.00
2018-01-23T21:35:17.562Z,7.87
2018-01-23T21:37:46.002Z,6.70
2018-01-23T21:40:14.467Z,7.27
2018-01-23T21:42:43.193Z,6.70
2018-01-23T21:45:11.618Z,6.23
2018-01-23T21:47:40.082Z,7.00
2018-01-23T21:50:08.482Z,7.30
2018-01-23T21:52:36.905Z,6.77
2018-01-23T21:55:05.357Z,6.30
2018-01-23T21:57:33.772Z,7.53
2018-01-23T22:00:02.215Z,5.97
2018-01-23T22:02:30.686Z,5.83
2018-01-23T22:04:59.093Z,7.40
2018-01-23T22:07:27.497Z,6.83
2018-01-23T22:09:55.933Z,7.30
2018-01-23T22:12:24.358Z,6.57
2018-01-23T22:14:52.773Z,6.43
2018-01-23T22:17:21.209Z,6.53
2018-01-23T22:19:49.607Z,5.13
2018-01-23T22:22:18.020Z,6.13
2018-01-23T22:24:46.463Z,6.17
2018-01-23T22:27:14.857Z,5.83
2018-01-23T22:29:43.245Z,5.20
2018-01-23T22:32:11.721Z,5.17
2018-01-23T22:34:40.138Z,4.77
2018-01-23T22:37:08.538Z,4.80
2018-01-23T22:39:36.992Z,5.03
2018-01-23T22:42:05.395Z,3.83
2018-01-23T22:44:33.810Z,3.93
2018-01-23T22:47:02.230Z,3.67
2018-01-23T22:49:30.635Z,3.97
2018-01-23T22:51:59.049Z,3.90
2018-01-23T22:54:27.525Z,3.40
2018-01-23T22:56:55.922Z,3.33
2018-01-23T22:59:24.330Z,4.37
2018-01-23T23:01:52.778Z,3.70
2018-01-23T23:04:21.177Z,3.10
2018-01-23T23:06:49.568Z,3.70
2018-01-23T23:09:18.005Z,3.30
2018-01-23T23:11:46.425Z,3.40
2018-01-23T23:14:14.815Z,2.77
2018-01-23T23:16:43.293Z,3.27
2018-01-23T23:19:11.718Z,3.27
2018-01-23T23:21:40.121Z,3.40
2018-01-23T23:24:08.839Z,3.53
2018-01-23T23:26:37.234Z,3.10
2018-01-23T23:29:05.655Z,3.40
2018-01-23T23:31:34.093Z,3.30
2018-01-23T23:34:02.510Z,3.40
2018-01-23T23:36:30.918Z,3.53
2018-01-23T23:38:59.345Z,3.40
2018-01-23T23:41:27.733Z,3.13
2018-01-23T23:43:56.161Z,3.60
2018-01-23T23:46:24.614Z,3.77
2018-01-23T23:48:53.033Z,3.70
2018-01-23T23:51:21.443Z,3.60
2018-01-23T23:53:49.865Z,4.10
2018-01-23T23:56:18.255Z,3.70
2018-01-23T23:58:46.658Z,4.00
